createdAt,value
2022-11-25T00:01:31.724Z,100234.94
2022-11-25T00:03:59.521Z,100238.34
2022-11-25T00:06:29.485Z,100236.56
2022-11-25T00:09:08.544Z,100228.69
2022-11-25T00:11:36.924Z,100236.56
2022-11-25T00:14:04.569Z,100233.94
2022-11-25T00:16:31.723Z,100239.25
2022-11-25T00:18:59.229Z,100246.97
2022-11-25T00:21:29.337Z,100240.94
2022-11-25T00:24:00.958Z,100242.66
2022-11-25T00:26:29.483Z,100245.31
2022-11-25T00:28:59.878Z,100240.84
2022-11-25T00:31:32.794Z,100236.31
2022-11-25T00:33:59.766Z,100234.56
2022-11-25T00:36:32.349Z,100235.47
2022-11-25T00:39:03.533Z,100235.41
2022-11-25T00:41:50.102Z,100242.34
2022-11-25T00:44:38.406Z,100246.72
2022-11-25T00:47:12.417Z,100250.28
2022-11-25T00:49:41.391Z,100258.91
2022-11-25T00:52:09.593Z,100247.47
2022-11-25T00:54:36.808Z,100244.84
2022-11-25T00:57:04.147Z,100255.31
2022-11-25T00:59:31.178Z,100257.88
2022-11-25T01:02:00.209Z,100263.97
2022-11-25T01:04:27.249Z,100259.44
2022-11-25T01:06:56.816Z,100261.16
2022-11-25T01:09:24.000Z,100260.34
2022-11-25T01:11:51.651Z,100266.31
2022-11-25T01:14:19.534Z,100266.31
2022-11-25T01:16:48.076Z,100263.41
2022-11-25T01:19:16.359Z,100253.06
2022-11-25T01:21:43.536Z,100260.00
2022-11-25T01:24:16.095Z,100258.13
2022-11-25T01:26:44.534Z,100255.81
2022-11-25T01:29:16.896Z,100259.31
2022-11-25T01:31:45.124Z,100257.81
2022-11-25T01:34:20.659Z,100262.03
2022-11-25T01:36:48.227Z,100263.72
2022-11-25T01:39:21.129Z,100263.91
2022-11-25T01:41:49.018Z,100270.06
2022-11-25T01:44:17.295Z,100280.44
2022-11-25T01:46:47.277Z,100277.81
2022-11-25T01:49:24.308Z,100279.69
2022-11-25T01:52:01.611Z,100278.63
2022-11-25T01:54:33.458Z,100275.38
2022-11-25T01:57:08.893Z,100279.75
2022-11-25T01:59:42.845Z,100273.72
2022-11-25T02:02:10.424Z,100261.41
2022-11-25T02:04:39.537Z,100260.59
2022-11-25T02:07:41.328Z,100273.75
2022-11-25T02:10:14.531Z,100271.97
2022-11-25T02:12:45.708Z,100270.09
2022-11-25T02:15:13.869Z,100269.34
2022-11-25T02:17:42.245Z,100268.63
2022-11-25T02:20:20.685Z,100273.75
2022-11-25T02:23:19.674Z,100274.72
2022-11-25T02:25:47.638Z,100286.91
2022-11-25T02:28:37.495Z,100280.78
2022-11-25T02:31:07.821Z,100285.13
2022-11-25T02:33:36.597Z,100285.19
2022-11-25T02:36:07.157Z,100281.88
2022-11-25T02:38:47.818Z,100293.28
2022-11-25T02:41:19.804Z,100276.72
2022-11-25T02:43:51.612Z,100283.59
2022-11-25T02:46:23.652Z,100283.72
2022-11-25T02:49:09.347Z,100280.28
2022-11-25T02:51:38.262Z,100269.72
2022-11-25T02:54:05.510Z,100262.69
2022-11-25T02:56:35.195Z,100278.47
2022-11-25T02:59:02.874Z,100283.56
2022-11-25T03:01:35.366Z,100281.88
2022-11-25T03:04:05.914Z,100287.97
2022-11-25T03:06:33.380Z,100287.00
2022-11-25T03:09:00.523Z,100300.03
2022-11-25T03:11:46.283Z,100292.22
2022-11-25T03:14:14.886Z,100300.06
2022-11-25T03:16:43.087Z,100296.63
2022-11-25T03:19:10.129Z,100301.75
2022-11-25T03:21:36.977Z,100304.41
2022-11-25T03:24:04.058Z,100298.25
2022-11-25T03:26:31.410Z,100305.16
2022-11-25T03:28:58.407Z,100306.94
2022-11-25T03:31:25.387Z,100313.09
2022-11-25T03:33:52.481Z,100310.53
2022-11-25T03:36:21.240Z,100308.97
2022-11-25T03:38:48.389Z,100309.78
2022-11-25T03:41:15.280Z,100306.22
2022-11-25T03:43:42.393Z,100312.31
2022-11-25T03:46:09.356Z,100323.63
2022-11-25T03:48:36.638Z,100316.75
2022-11-25T03:51:03.828Z,100327.16
2022-11-25T03:53:30.762Z,100321.75
2022-11-25T03:56:00.135Z,100331.19
2022-11-25T03:58:27.088Z,100330.34
2022-11-25T04:00:55.293Z,100327.63
2022-11-25T04:03:22.496Z,100326.75
2022-11-25T04:05:49.379Z,100326.81
2022-11-25T04:08:16.713Z,100323.38
2022-11-25T04:10:45.245Z,100324.25
2022-11-25T04:13:12.580Z,100319.19
2022-11-25T04:15:49.842Z,100318.28
2022-11-25T04:18:19.738Z,100323.53
2022-11-25T04:20:50.148Z,100320.09
2022-11-25T04:23:17.155Z,100334.09
2022-11-25T04:25:54.877Z,100340.97
2022-11-25T04:28:31.123Z,100331.47
2022-11-25T04:30:58.396Z,100338.34
2022-11-25T04:33:25.546Z,100342.75
2022-11-25T04:35:53.200Z,100341.94
2022-11-25T04:38:20.883Z,100346.31
2022-11-25T04:40:48.719Z,100346.44
2022-11-25T04:43:21.979Z,100360.44
2022-11-25T04:46:15.953Z,100355.19
2022-11-25T04:48:46.709Z,100365.56
2022-11-25T04:51:15.372Z,100359.47
2022-11-25T04:53:44.103Z,100363.75
2022-11-25T04:56:18.731Z,100356.75
2022-11-25T04:59:05.400Z,100359.34
2022-11-25T05:01:33.987Z,100361.97
2022-11-25T05:04:10.547Z,100355.88
2022-11-25T05:06:37.753Z,100357.56
2022-11-25T05:09:05.816Z,100350.56
2022-11-25T05:11:38.033Z,100346.19
2022-11-25T05:14:05.536Z,100353.25
2022-11-25T05:16:32.915Z,100352.34
2022-11-25T05:19:00.520Z,100366.31
2022-11-25T05:21:27.605Z,100372.44
2022-11-25T05:23:56.079Z,100373.34
2022-11-25T05:26:24.447Z,100370.75
2022-11-25T05:28:53.905Z,100366.63
2022-11-25T05:31:21.058Z,100378.91
2022-11-25T05:33:48.846Z,100388.66
2022-11-25T05:36:16.980Z,100392.28
2022-11-25T05:38:46.395Z,100403.69
2022-11-25T05:41:18.811Z,100412.41
2022-11-25T05:43:47.332Z,100416.59
2022-11-25T05:46:14.945Z,100421.72
2022-11-25T05:48:53.397Z,100429.38
2022-11-25T05:51:20.889Z,100432.06
2022-11-25T05:53:48.225Z,100462.56
2022-11-25T05:56:15.360Z,100458.97
2022-11-25T05:59:05.834Z,100458.22
2022-11-25T06:01:57.590Z,100467.69
2022-11-25T06:04:24.921Z,100475.59
2022-11-25T06:06:51.913Z,100476.63
2022-11-25T06:09:18.938Z,100476.53
2022-11-25T06:11:45.860Z,100483.59
2022-11-25T06:14:12.788Z,100483.59
2022-11-25T06:16:41.293Z,100488.03
2022-11-25T06:19:22.951Z,100496.78
2022-11-25T06:21:49.847Z,100487.22
2022-11-25T06:24:16.936Z,100502.06
2022-11-25T06:26:46.048Z,100498.56
2022-11-25T06:29:12.923Z,100498.56
2022-11-25T06:31:43.105Z,100503.06
2022-11-25T06:34:27.918Z,100499.53
2022-11-25T06:36:55.172Z,100496.91
2022-11-25T06:39:22.067Z,100516.94
2022-11-25T06:41:48.949Z,100515.31
2022-11-25T06:44:15.951Z,100508.34
2022-11-25T06:46:42.945Z,100508.41
2022-11-25T06:49:09.955Z,100509.28
2022-11-25T06:51:36.825Z,100505.78
2022-11-25T06:54:03.896Z,100513.88
2022-11-25T06:56:30.856Z,100513.84
2022-11-25T06:58:57.797Z,100511.19
2022-11-25T07:01:29.721Z,100519.97
2022-11-25T07:04:03.429Z,100523.50
2022-11-25T07:06:32.041Z,100526.16
2022-11-25T07:08:59.357Z,100516.53
2022-11-25T07:11:29.396Z,100519.22
2022-11-25T07:13:59.129Z,100512.72
2022-11-25T07:16:27.397Z,100509.97
2022-11-25T07:18:54.795Z,100506.06
2022-11-25T07:21:25.484Z,100493.44
2022-11-25T07:23:53.116Z,100507.63
2022-11-25T07:26:25.357Z,100506.06
2022-11-25T07:28:54.005Z,100503.47
2022-11-25T07:31:31.750Z,100512.66
2022-11-25T07:34:12.387Z,100523.88
2022-11-25T07:36:39.632Z,100532.34
2022-11-25T07:39:09.511Z,100523.59
2022-11-25T07:41:36.771Z,100536.69
2022-11-25T07:44:06.102Z,100538.38
2022-11-25T07:46:47.455Z,100553.22
2022-11-25T07:49:21.026Z,100559.44
2022-11-25T07:51:56.800Z,100560.34
2022-11-25T07:54:24.491Z,100555.94
2022-11-25T07:56:51.951Z,100556.81
2022-11-25T07:59:22.108Z,100558.22
2022-11-25T08:01:54.091Z,100566.28
2022-11-25T08:04:21.719Z,100568.59
2022-11-25T08:06:51.092Z,100569.19
2022-11-25T08:09:21.605Z,100566.53
2022-11-25T08:11:49.520Z,100571.50
2022-11-25T08:14:17.630Z,100571.66
2022-11-25T08:16:44.910Z,100570.63
2022-11-25T08:19:14.545Z,100572.19
2022-11-25T08:21:42.621Z,100579.50
2022-11-25T08:24:16.833Z,100583.81
2022-11-25T08:26:44.197Z,100581.94
2022-11-25T08:29:15.423Z,100587.19
2022-11-25T08:31:43.412Z,100584.81
2022-11-25T08:34:18.522Z,100590.09
2022-11-25T08:36:48.654Z,100595.22
2022-11-25T08:39:44.143Z,100590.94
2022-11-25T08:42:06.109Z,100583.06
2022-11-25T08:44:33.112Z,100584.72
2022-11-25T08:47:00.167Z,100595.28
2022-11-25T08:49:29.409Z,100594.41
2022-11-25T08:51:56.373Z,100588.22
2022-11-25T08:54:23.277Z,100587.34
2022-11-25T08:56:50.248Z,100596.94
2022-11-25T08:59:17.145Z,100592.56
2022-11-25T09:01:44.383Z,100589.84
2022-11-25T09:04:11.548Z,100589.00
2022-11-25T09:06:39.218Z,100597.75
2022-11-25T09:09:06.908Z,100603.88
2022-11-25T09:11:33.943Z,100601.22
2022-11-25T09:14:00.923Z,100602.16
2022-11-25T09:16:28.444Z,100608.31
2022-11-25T09:18:56.388Z,100609.16
2022-11-25T09:21:25.044Z,100611.81
2022-11-25T09:23:54.110Z,100608.34
2022-11-25T09:26:22.574Z,100612.59
2022-11-25T09:28:49.739Z,100615.41
2022-11-25T09:31:17.470Z,100609.25
2022-11-25T09:33:45.156Z,100621.56
2022-11-25T09:36:13.816Z,100610.16
2022-11-25T09:38:44.212Z,100607.50
2022-11-25T09:41:39.750Z,100612.84
2022-11-25T09:44:41.594Z,100617.22
2022-11-25T09:47:32.758Z,100625.09
2022-11-25T09:49:59.587Z,100633.81
2022-11-25T09:52:50.883Z,100632.84
2022-11-25T09:55:22.260Z,100628.56
2022-11-25T09:58:20.640Z,100625.09
2022-11-25T10:00:50.245Z,100605.78
2022-11-25T10:03:22.850Z,100616.25
2022-11-25T10:05:53.841Z,100617.97
2022-11-25T10:08:25.538Z,100626.84
2022-11-25T10:11:17.115Z,100623.34
2022-11-25T10:14:04.358Z,100628.59
2022-11-25T10:16:51.146Z,100628.56
2022-11-25T10:19:47.449Z,100623.09
2022-11-25T10:22:22.875Z,100642.25
2022-11-25T10:24:51.566Z,100636.19
2022-11-25T10:27:36.376Z,100635.44
2022-11-25T10:30:14.568Z,100628.34
2022-11-25T10:32:46.730Z,100629.09
2022-11-25T10:35:34.116Z,100630.16
2022-11-25T10:38:04.062Z,100631.91
2022-11-25T10:40:31.267Z,100632.03
2022-11-25T10:42:59.173Z,100633.78
2022-11-25T10:45:37.150Z,100642.47
2022-11-25T10:48:41.321Z,100632.84
2022-11-25T10:51:38.436Z,100636.41
2022-11-25T10:54:12.743Z,100631.97
2022-11-25T10:56:53.995Z,100635.56
2022-11-25T10:59:34.810Z,100644.31
2022-11-25T11:02:13.627Z,100647.88
2022-11-25T11:05:09.743Z,100644.31
2022-11-25T11:07:39.589Z,100654.88
2022-11-25T11:10:23.937Z,100660.97
2022-11-25T11:12:59.139Z,100659.22
2022-11-25T11:15:42.467Z,100651.28
2022-11-25T11:18:24.118Z,100652.09
2022-11-25T11:20:54.316Z,100656.41
2022-11-25T11:23:21.345Z,100658.28
2022-11-25T11:26:20.089Z,100658.31
2022-11-25T11:28:47.554Z,100660.94
2022-11-25T11:31:23.200Z,100646.09
2022-11-25T11:33:59.285Z,100653.06
2022-11-25T11:36:50.762Z,100652.19
2022-11-25T11:39:38.298Z,100659.09
2022-11-25T11:42:26.942Z,100663.38
2022-11-25T11:45:24.783Z,100672.06
2022-11-25T11:48:21.347Z,100675.66
2022-11-25T11:50:57.735Z,100683.53
2022-11-25T11:53:36.673Z,100687.06
2022-11-25T11:56:36.261Z,100687.91
2022-11-25T11:59:30.802Z,100695.81
2022-11-25T12:02:15.787Z,100685.09
2022-11-25T12:05:10.837Z,100691.09
2022-11-25T12:07:52.864Z,100695.31
2022-11-25T12:10:24.210Z,100693.66
2022-11-25T12:12:57.002Z,100699.91
2022-11-25T12:15:49.525Z,100703.50
2022-11-25T12:18:44.776Z,100712.09
2022-11-25T12:21:45.581Z,100709.44
2022-11-25T12:24:21.185Z,100707.47
2022-11-25T12:26:57.061Z,100708.53
2022-11-25T12:29:42.767Z,100712.88
2022-11-25T12:32:24.880Z,100712.00
2022-11-25T12:34:58.716Z,100716.25
2022-11-25T12:37:51.047Z,100714.63
2022-11-25T12:40:20.395Z,100724.06
2022-11-25T12:42:49.597Z,100709.28
2022-11-25T12:45:22.081Z,100712.00
2022-11-25T12:47:49.012Z,100705.97
2022-11-25T12:50:20.948Z,100710.16
2022-11-25T12:53:15.992Z,100714.53
2022-11-25T12:55:42.977Z,100715.53
2022-11-25T12:58:33.100Z,100707.59
2022-11-25T13:01:12.100Z,100713.72
2022-11-25T13:03:51.007Z,100718.31
2022-11-25T13:06:44.145Z,100714.81
2022-11-25T13:09:14.007Z,100712.06
2022-11-25T13:12:04.919Z,100709.47
2022-11-25T13:15:04.408Z,100707.69
2022-11-25T13:17:38.008Z,100723.47
2022-11-25T13:20:29.580Z,100724.22
2022-11-25T13:23:05.637Z,100724.19
2022-11-25T13:25:33.887Z,100724.00
2022-11-25T13:28:03.363Z,100732.91
2022-11-25T13:30:32.979Z,100738.41
2022-11-25T13:33:12.010Z,100732.09
2022-11-25T13:35:50.445Z,100740.88
2022-11-25T13:38:29.367Z,100741.59
2022-11-25T13:41:00.583Z,100734.53
2022-11-25T13:43:28.037Z,100743.28
2022-11-25T13:45:56.196Z,100751.25
2022-11-25T13:48:31.266Z,100742.41
2022-11-25T13:51:16.888Z,100746.84
2022-11-25T13:54:01.326Z,100742.44
2022-11-25T13:56:36.801Z,100735.31
2022-11-25T13:59:14.062Z,100728.38
2022-11-25T14:01:52.079Z,100738.13
2022-11-25T14:04:44.078Z,100739.94
2022-11-25T14:07:30.313Z,100743.34
2022-11-25T14:10:16.341Z,100754.03
2022-11-25T14:13:18.055Z,100758.50
2022-11-25T14:16:07.201Z,100756.75
2022-11-25T14:21:50.759Z,100765.22
2022-11-25T14:24:41.623Z,100760.03
2022-11-25T14:27:22.565Z,100762.72
2022-11-25T14:30:06.535Z,100774.72
2022-11-25T14:32:48.593Z,100770.53
2022-11-25T14:35:20.780Z,100775.81
2022-11-25T14:37:52.690Z,100774.78
2022-11-25T14:40:30.626Z,100778.53
2022-11-25T14:43:07.969Z,100776.66
2022-11-25T14:45:35.851Z,100773.81
2022-11-25T14:48:24.343Z,100781.00
2022-11-25T14:51:00.318Z,100781.97
2022-11-25T14:53:28.842Z,100784.56
2022-11-25T14:56:00.160Z,100785.47
2022-11-25T14:58:27.708Z,100788.66
2022-11-25T15:00:57.794Z,100793.91
2022-11-25T15:03:25.062Z,100799.09
2022-11-25T15:05:57.677Z,100788.41
2022-11-25T15:08:25.698Z,100793.56
2022-11-25T15:10:59.104Z,100797.19
2022-11-25T15:13:41.312Z,100801.41
2022-11-25T15:16:11.813Z,100798.88
2022-11-25T15:18:43.898Z,100795.41
2022-11-25T15:21:14.906Z,100801.44
2022-11-25T15:23:41.856Z,100809.28
2022-11-25T15:26:21.217Z,100816.53
2022-11-25T15:29:04.847Z,100819.09
2022-11-25T15:31:34.771Z,100817.22
2022-11-25T15:34:04.923Z,100817.34
2022-11-25T15:36:31.985Z,100826.97
2022-11-25T15:39:13.940Z,100831.16
2022-11-25T15:41:43.386Z,100825.28
2022-11-25T15:44:20.007Z,100830.56
2022-11-25T15:46:55.925Z,100831.22
2022-11-25T15:49:23.190Z,100823.50
2022-11-25T15:51:55.369Z,100823.59
2022-11-25T15:54:32.178Z,100832.53
2022-11-25T15:57:14.718Z,100829.22
2022-11-25T16:00:02.325Z,100836.16
2022-11-25T16:02:42.297Z,100836.97
2022-11-25T16:05:15.203Z,100838.78
2022-11-25T16:07:51.523Z,100835.34
2022-11-25T16:10:26.895Z,100834.34
2022-11-25T16:13:30.085Z,100836.97
2022-11-25T16:16:12.109Z,100843.81
2022-11-25T16:18:57.155Z,100836.03
2022-11-25T16:21:38.904Z,100846.56
2022-11-25T16:24:05.811Z,100847.72
2022-11-25T16:26:38.674Z,100850.25
2022-11-25T16:29:17.602Z,100848.69
2022-11-25T16:31:44.671Z,100858.38
2022-11-25T16:34:22.040Z,100862.94
2022-11-25T16:36:48.960Z,100860.44
2022-11-25T16:39:16.079Z,100869.94
2022-11-25T16:41:46.332Z,100867.34
2022-11-25T16:44:19.371Z,100873.88
2022-11-25T16:46:46.376Z,100876.59
2022-11-25T16:49:14.658Z,100881.13
2022-11-25T16:51:42.024Z,100874.34
2022-11-25T16:54:08.977Z,100880.59
2022-11-25T16:56:41.965Z,100882.44
2022-11-25T16:59:22.735Z,100892.03
2022-11-25T17:01:49.784Z,100882.44
2022-11-25T17:04:17.702Z,100896.44
2022-11-25T17:06:50.545Z,100888.44
2022-11-25T17:09:21.060Z,100887.47
2022-11-25T17:11:54.783Z,100892.72
2022-11-25T17:14:28.319Z,100888.59
2022-11-25T17:16:55.483Z,100892.72
2022-11-25T17:19:22.560Z,100900.75
2022-11-25T17:21:49.526Z,100902.59
2022-11-25T17:24:22.588Z,100895.53
2022-11-25T17:27:00.690Z,100900.69
2022-11-25T17:29:48.210Z,100905.00
2022-11-25T17:32:16.412Z,100900.00
2022-11-25T17:34:43.426Z,100903.16
2022-11-25T17:37:18.459Z,100905.00
2022-11-25T17:39:45.486Z,100907.72
2022-11-25T17:42:17.505Z,100916.53
2022-11-25T17:44:49.844Z,100915.47
2022-11-25T17:47:19.570Z,100918.19
2022-11-25T17:49:46.477Z,100918.91
2022-11-25T17:52:13.316Z,100920.75
2022-11-25T17:54:40.522Z,100924.03
2022-11-25T17:57:11.318Z,100915.41
2022-11-25T17:59:38.537Z,100926.22
2022-11-25T18:02:18.516Z,100922.84
2022-11-25T18:04:45.730Z,100926.91
2022-11-25T18:07:12.780Z,100929.50
2022-11-25T18:09:40.339Z,100934.56
2022-11-25T18:12:10.955Z,100930.13
2022-11-25T18:14:40.921Z,100941.50
2022-11-25T18:17:11.619Z,100935.06
2022-11-25T18:19:38.536Z,100941.22
2022-11-25T18:22:14.479Z,100941.56
2022-11-25T18:24:42.015Z,100936.50
2022-11-25T18:27:21.822Z,100940.78
2022-11-25T18:29:49.094Z,100942.25
2022-11-25T18:32:16.074Z,100944.13
2022-11-25T18:34:43.036Z,100944.88
2022-11-25T18:37:12.064Z,100950.19
2022-11-25T18:39:39.294Z,100964.28
2022-11-25T18:42:07.132Z,100953.63
2022-11-25T18:44:43.728Z,100951.84
2022-11-25T18:47:13.868Z,100955.44
2022-11-25T18:49:40.823Z,100958.94
2022-11-25T18:52:07.817Z,100969.81
2022-11-25T18:54:35.059Z,100971.50
2022-11-25T18:57:02.364Z,100969.59
2022-11-25T18:59:34.925Z,100972.06
2022-11-25T19:02:02.169Z,100978.09
2022-11-25T19:04:29.133Z,100979.97
2022-11-25T19:06:56.033Z,100985.13
2022-11-25T19:09:22.924Z,100995.53
2022-11-25T19:11:55.347Z,100992.97
2022-11-25T19:14:36.051Z,100990.34
2022-11-25T19:17:07.649Z,100988.25
2022-11-25T19:19:36.590Z,100996.84
2022-11-25T19:22:10.113Z,100990.94
2022-11-25T19:24:37.157Z,101006.50
2022-11-25T19:27:04.393Z,101010.66
2022-11-25T19:29:41.629Z,101010.97
2022-11-25T19:32:22.007Z,101003.75
2022-11-25T19:34:53.501Z,101012.72
2022-11-25T19:37:22.026Z,101016.34
2022-11-25T19:39:53.194Z,101012.78
2022-11-25T19:42:20.439Z,101014.38
2022-11-25T19:44:47.609Z,101018.66
2022-11-25T19:47:24.111Z,101019.56
2022-11-25T19:49:54.693Z,101035.25
2022-11-25T19:52:24.193Z,101035.16
2022-11-25T19:54:51.123Z,101044.63
2022-11-25T19:57:21.230Z,101047.34
2022-11-25T19:59:48.663Z,101051.78
2022-11-25T20:02:19.730Z,101060.34
2022-11-25T20:04:49.101Z,101062.22
2022-11-25T20:07:19.506Z,101063.16
2022-11-25T20:09:47.855Z,101061.50
2022-11-25T20:12:30.845Z,101069.25
2022-11-25T20:14:57.715Z,101066.59
2022-11-25T20:17:34.221Z,101071.72
2022-11-25T20:20:25.800Z,101081.28
2022-11-25T20:23:11.055Z,101080.88
2022-11-25T20:25:44.510Z,101082.16
2022-11-25T20:28:23.558Z,101083.75
2022-11-25T20:30:52.380Z,101090.91
2022-11-25T20:33:24.045Z,101096.25
2022-11-25T20:35:59.768Z,101096.22
2022-11-25T20:38:30.136Z,101090.13
2022-11-25T20:40:58.952Z,101099.78
2022-11-25T20:43:39.165Z,101103.56
2022-11-25T20:46:12.593Z,101108.03
2022-11-25T20:48:39.608Z,101110.69
2022-11-25T20:51:12.990Z,101111.09
2022-11-25T20:53:43.666Z,101108.75
2022-11-25T20:56:14.827Z,101107.88
2022-11-25T20:58:42.051Z,101108.91
2022-11-25T21:01:09.636Z,101110.59
2022-11-25T21:03:36.591Z,101116.81
2022-11-25T21:06:16.995Z,101110.72
2022-11-25T21:08:47.711Z,101110.66
2022-11-25T21:11:15.253Z,101113.88
2022-11-25T21:13:42.621Z,101118.34
2022-11-25T21:16:09.533Z,101119.97
2022-11-25T21:18:36.481Z,101119.03
2022-11-25T21:21:04.016Z,101127.19
2022-11-25T21:23:35.304Z,101122.81
2022-11-25T21:26:06.336Z,101122.06
2022-11-25T21:28:37.686Z,101119.03
2022-11-25T21:31:09.829Z,101120.38
2022-11-25T21:33:38.040Z,101122.78
2022-11-25T21:36:05.131Z,101125.41
2022-11-25T21:38:32.056Z,101122.91
2022-11-25T21:40:58.919Z,101125.56
2022-11-25T21:43:34.066Z,101141.94
2022-11-25T21:46:07.389Z,101131.44
2022-11-25T21:48:34.379Z,101128.75
2022-11-25T21:51:01.391Z,101138.38
2022-11-25T21:53:30.098Z,101129.72
2022-11-25T21:56:01.485Z,101132.16
2022-11-25T21:58:30.313Z,101121.53
2022-11-25T22:01:00.345Z,101124.16
2022-11-25T22:03:31.069Z,101125.84
2022-11-25T22:05:58.152Z,101122.41
2022-11-25T22:08:25.077Z,101135.25
2022-11-25T22:10:54.790Z,101127.66
2022-11-25T22:13:27.570Z,101130.88
2022-11-25T22:15:57.803Z,101133.44
2022-11-25T22:18:36.132Z,101135.66
2022-11-25T22:21:03.673Z,101138.50
2022-11-25T22:23:30.524Z,101138.16
2022-11-25T22:25:57.680Z,101138.06
2022-11-25T22:28:27.838Z,101132.50
2022-11-25T22:30:57.586Z,101130.84
2022-11-25T22:33:30.686Z,101142.44
2022-11-25T22:35:57.902Z,101138.72
2022-11-25T22:38:24.959Z,101139.75
2022-11-25T22:40:56.653Z,101139.50
2022-11-25T22:43:28.472Z,101135.34
2022-11-25T22:45:56.105Z,101139.78
2022-11-25T22:48:35.240Z,101142.28
2022-11-25T22:51:02.464Z,101155.22
2022-11-25T22:53:29.695Z,101155.81
2022-11-25T22:55:56.985Z,101164.41
2022-11-25T22:58:25.770Z,101174.94
2022-11-25T23:00:52.806Z,101157.34
2022-11-25T23:03:33.452Z,101158.59
2022-11-25T23:06:02.169Z,101159.22
2022-11-25T23:08:31.756Z,101166.09
2022-11-25T23:10:59.155Z,101164.53
2022-11-25T23:13:26.059Z,101162.09
2022-11-25T23:15:55.831Z,101173.97
2022-11-25T23:18:39.030Z,101188.53
2022-11-25T23:21:14.427Z,101197.63
2022-11-25T23:23:41.117Z,101200.59
2022-11-25T23:26:10.737Z,101208.22
2022-11-25T23:28:37.700Z,101205.81
2022-11-25T23:31:05.758Z,101214.78
2022-11-25T23:33:55.866Z,101204.81
2022-11-25T23:36:29.981Z,101215.75
2022-11-25T23:39:02.523Z,101212.59
2022-11-25T23:41:32.031Z,101223.00
2022-11-25T23:44:06.225Z,101223.13
2022-11-25T23:46:36.543Z,101217.72
2022-11-25T23:49:06.722Z,101221.28
2022-11-25T23:51:33.940Z,101223.94
2022-11-25T23:54:00.874Z,101221.41
2022-11-25T23:56:28.645Z,101226.50
2022-11-25T23:58:55.534Z,101230.25
